CYRQ

Trois-Rivieres Airport

Trois-Rivieres, , Canada
TAF CYRQ 200744Z 2008/2020 04010KT 11/2SM -SN OVC015 TEMPO 2008/2009 3SM -SN OVC030 FM200900 05018G28KT 3/4SM -SN BLSN VV005 PROB30 2012/2020 3/8SM SN BLSN VV002 RMK FCST BASED ON AUTO OBS. NXT FCST BY 201400Z
Issued Valid From Valid To
Jan-20 @ 07:44 UTC
(3 hours ago)
Jan-20 @ 08:00 UTC
(3 hours ago)
Jan-20 @ 20:00 UTC
(in 9 hours)
Expired Click to View Jan-20 @ 08:00 to Jan-20 @ 09:00
TAF CYRQ 200744Z 2008/2020 04010KT 11/2SM -SN OVC015
Wind Visibility Clouds Conditions
40° at 10 knots 1 1/2 miles
  • Overcast at 1,500' AGL
  • Light Snow
Expired Click to View Jan-20 @ 08:00 to Jan-20 @ 09:00
TEMPO 2008/2009 3SM -SN OVC030
Visibility Clouds Conditions
3 miles
  • Overcast at 3,000' AGL
  • Light Snow
From Jan-20 @ 09:00 to Jan-20 @ 20:00
FM200900 05018G28KT 3/4SM -SN BLSN VV005
Wind Visibility Clouds Conditions
50° at 18 knots
 Gusting to 28 knots
3/4 miles
  • Vertical visibility at 500' AGL
  • Light Snow
  • Blowing
  • Snow
Probable  (Probability 30%) Jan-20 @ 12:00 to Jan-20 @ 20:00
PROB30 2012/2020 3/8SM SN BLSN VV002 RMK FCST BASED ON AUTO OBS. NXT FCST BY 201400Z
Visibility Clouds Conditions
38 miles
  • Vertical visibility at 200' AGL
  • Snow
  • Blowing
  • Snow
TAF CYRQ 200744Z 2008/2020 04010KT 11/2SM -SN OVC015 TEMPO 2008/2009 3SM -SN OVC030 FM200900 05018G28KT 3/4SM -SN BLSN VV005 PROB30 2012/2020 3/8SM SN BLSN VV002 RMK FCST BASED ON AUTO OBS. NXT FCST BY 201400Z
Issued Jan-20 @ 07:44 UTC
(3 hours ago)
Valid From Jan-20 @ 08:00 UTC
(3 hours ago)
Valid To Jan-20 @ 20:00 UTC
(in 9 hours)
Jan-20 @ 08:00 - Jan-20 @ 09:00
Wind Visibility
40° at 10 knots 1 1/2 miles
Clouds
  • Overcast at 1,500' AGL
Conditions
  • Light Snow
Jan-20 @ 08:00 - Jan-20 @ 09:00
Clouds
  • Overcast at 3,000' AGL
Conditions
  • Light Snow
From Jan-20 @ 09:00 - Jan-20 @ 20:00
Wind Visibility
50° at 18 knots
 Gusting to 28 knots
3/4 miles
Clouds
  • Vertical visibility at 500' AGL
Conditions
  • Light Snow
  • Blowing
  • Snow
Probability 30% Probable Jan-20 @ 12:00 - Jan-20 @ 20:00
Clouds
  • Vertical visibility at 200' AGL
Conditions
  • Snow
  • Blowing
  • Snow